sensor_id;sensor_type;location;lat;lon;timestamp;pressure;altitude;pressure_sealevel;temperature;humidity
250;BME280;109;19.806;-70.704;2023-07-13T00:01:45;101398.47;;;30.36;59.92
250;BME280;109;19.806;-70.704;2023-07-13T00:04:21;101396.97;;;30.18;60.45
250;BME280;109;19.806;-70.704;2023-07-13T00:06:49;101417.63;;;30.19;60.24
250;BME280;109;19.806;-70.704;2023-07-13T00:09:17;101412.50;;;30.28;60.55
250;BME280;109;19.806;-70.704;2023-07-13T00:11:45;101417.81;;;30.43;60.08
250;BME280;109;19.806;-70.704;2023-07-13T00:14:13;101416.19;;;30.40;60.33
250;BME280;109;19.806;-70.704;2023-07-13T00:16:41;101411.75;;;30.39;60.59
250;BME280;109;19.806;-70.704;2023-07-13T00:19:10;101428.78;;;30.54;60.29
250;BME280;109;19.806;-70.704;2023-07-13T00:21:38;101429.78;;;30.39;60.41
250;BME280;109;19.806;-70.704;2023-07-13T00:24:06;101433.66;;;30.34;60.32
250;BME280;109;19.806;-70.704;2023-07-13T00:26:33;101440.69;;;30.37;60.36
250;BME280;109;19.806;-70.704;2023-07-13T00:29:01;101438.16;;;30.21;60.27
250;BME280;109;19.806;-70.704;2023-07-13T00:31:30;101431.69;;;29.97;60.52
250;BME280;109;19.806;-70.704;2023-07-13T00:33:56;101425.66;;;29.92;60.60
250;BME280;109;19.806;-70.704;2023-07-13T00:36:23;101427.25;;;29.96;60.41
250;BME280;109;19.806;-70.704;2023-07-13T00:38:49;101415.94;;;30.04;60.54
250;BME280;109;19.806;-70.704;2023-07-13T00:41:16;101419.31;;;30.07;60.11
250;BME280;109;19.806;-70.704;2023-07-13T00:43:43;101421.41;;;30.16;60.28
250;BME280;109;19.806;-70.704;2023-07-13T00:46:30;101419.56;;;30.17;59.89
250;BME280;109;19.806;-70.704;2023-07-13T00:49:01;101421.66;;;29.99;60.39
250;BME280;109;19.806;-70.704;2023-07-13T00:51:50;101421.34;;;30.04;60.54
250;BME280;109;19.806;-70.704;2023-07-13T00:54:32;101428.03;;;29.98;60.28
250;BME280;109;19.806;-70.704;2023-07-13T00:57:12;101428.28;;;29.93;60.67
250;BME280;109;19.806;-70.704;2023-07-13T00:59:51;101424.34;;;29.85;60.42
250;BME280;109;19.806;-70.704;2023-07-13T01:02:25;101428.50;;;29.90;60.89
250;BME280;109;19.806;-70.704;2023-07-13T01:04:52;101430.53;;;29.87;60.92
250;BME280;109;19.806;-70.704;2023-07-13T01:07:27;101437.94;;;29.83;60.79
250;BME280;109;19.806;-70.704;2023-07-13T01:09:56;101438.75;;;29.71;60.17
250;BME280;109;19.806;-70.704;2023-07-13T01:12:29;101445.78;;;29.74;60.38
250;BME280;109;19.806;-70.704;2023-07-13T01:14:58;101466.41;;;29.60;60.53
250;BME280;109;19.806;-70.704;2023-07-13T01:17:34;101462.25;;;29.55;61.02
250;BME280;109;19.806;-70.704;2023-07-13T01:20:00;101456.19;;;29.65;61.03
250;BME280;109;19.806;-70.704;2023-07-13T01:22:33;101455.22;;;29.66;60.71
250;BME280;109;19.806;-70.704;2023-07-13T01:25:00;101458.09;;;29.78;60.91
250;BME280;109;19.806;-70.704;2023-07-13T01:27:33;101460.03;;;29.76;60.94
250;BME280;109;19.806;-70.704;2023-07-13T01:30:00;101463.53;;;29.49;60.60
250;BME280;109;19.806;-70.704;2023-07-13T01:32:36;101470.53;;;29.52;60.99
250;BME280;109;19.806;-70.704;2023-07-13T01:35:03;101475.56;;;29.58;60.79
250;BME280;109;19.806;-70.704;2023-07-13T01:37:37;101472.38;;;29.65;60.29
250;BME280;109;19.806;-70.704;2023-07-13T01:40:05;101471.50;;;29.65;60.39
250;BME280;109;19.806;-70.704;2023-07-13T01:42:46;101473.91;;;29.70;60.34
250;BME280;109;19.806;-70.704;2023-07-13T01:45:20;101474.50;;;29.60;60.28
250;BME280;109;19.806;-70.704;2023-07-13T01:47:47;101467.91;;;29.79;60.42
250;BME280;109;19.806;-70.704;2023-07-13T01:50:20;101467.34;;;29.88;60.53
250;BME280;109;19.806;-70.704;2023-07-13T01:52:47;101468.69;;;29.95;60.15
250;BME280;109;19.806;-70.704;2023-07-13T01:55:21;101469.47;;;29.69;60.58
250;BME280;109;19.806;-70.704;2023-07-13T01:57:48;101483.56;;;29.74;60.34
250;BME280;109;19.806;-70.704;2023-07-13T02:00:21;101475.56;;;29.72;60.20
250;BME280;109;19.806;-70.704;2023-07-13T02:02:48;101466.59;;;29.72;60.81
250;BME280;109;19.806;-70.704;2023-07-13T02:05:21;101472.66;;;29.75;60.57
250;BME280;109;19.806;-70.704;2023-07-13T02:07:48;101480.34;;;29.81;60.51
250;BME280;109;19.806;-70.704;2023-07-13T02:10:21;101475.91;;;29.80;60.72
250;BME280;109;19.806;-70.704;2023-07-13T02:12:49;101488.94;;;29.74;60.29
250;BME280;109;19.806;-70.704;2023-07-13T02:15:23;101492.03;;;29.67;60.72
250;BME280;109;19.806;-70.704;2023-07-13T02:17:50;101488.34;;;29.69;60.48
250;BME280;109;19.806;-70.704;2023-07-13T02:20:23;101492.97;;;29.81;60.03
250;BME280;109;19.806;-70.704;2023-07-13T02:22:50;101498.78;;;29.75;60.07
250;BME280;109;19.806;-70.704;2023-07-13T02:25:30;101502.16;;;29.50;60.37
250;BME280;109;19.806;-70.704;2023-07-13T02:28:03;101502.03;;;29.65;60.53
250;BME280;109;19.806;-70.704;2023-07-13T02:30:30;101501.84;;;29.69;60.39
250;BME280;109;19.806;-70.704;2023-07-13T02:33:03;101503.00;;;29.64;60.86
250;BME280;109;19.806;-70.704;2023-07-13T02:35:30;101505.41;;;29.69;60.21
250;BME280;109;19.806;-70.704;2023-07-13T02:38:03;101510.34;;;29.62;60.47
250;BME280;109;19.806;-70.704;2023-07-13T02:40:30;101513.13;;;29.75;60.48
250;BME280;109;19.806;-70.704;2023-07-13T02:43:05;101501.94;;;29.81;60.15
250;BME280;109;19.806;-70.704;2023-07-13T02:45:47;101504.34;;;29.72;59.83
250;BME280;109;19.806;-70.704;2023-07-13T02:48:14;101503.31;;;29.74;59.66
250;BME280;109;19.806;-70.704;2023-07-13T02:50:47;101499.44;;;29.78;59.62
250;BME280;109;19.806;-70.704;2023-07-13T02:53:14;101499.16;;;29.69;60.11
250;BME280;109;19.806;-70.704;2023-07-13T02:55:47;101495.47;;;29.84;59.40
250;BME280;109;19.806;-70.704;2023-07-13T02:58:14;101498.88;;;29.73;59.69
250;BME280;109;19.806;-70.704;2023-07-13T03:00:49;101509.25;;;29.65;59.65
250;BME280;109;19.806;-70.704;2023-07-13T03:03:17;101496.38;;;29.70;59.54
250;BME280;109;19.806;-70.704;2023-07-13T03:05:59;101488.09;;;29.59;59.17
250;BME280;109;19.806;-70.704;2023-07-13T03:08:41;101495.03;;;29.63;59.38
250;BME280;109;19.806;-70.704;2023-07-13T03:11:17;101499.66;;;29.75;59.30
250;BME280;109;19.806;-70.704;2023-07-13T03:13:58;101496.38;;;29.70;58.96
250;BME280;109;19.806;-70.704;2023-07-13T03:16:35;101500.44;;;29.63;58.69
250;BME280;109;19.806;-70.704;2023-07-13T03:19:16;101501.28;;;29.63;58.95
250;BME280;109;19.806;-70.704;2023-07-13T03:21:50;101496.16;;;29.73;58.51
250;BME280;109;19.806;-70.704;2023-07-13T03:24:17;101510.44;;;29.75;58.38
250;BME280;109;19.806;-70.704;2023-07-13T03:26:51;101498.69;;;29.76;58.15
250;BME280;109;19.806;-70.704;2023-07-13T03:29:18;101497.03;;;29.74;57.93
250;BME280;109;19.806;-70.704;2023-07-13T03:31:52;101502.44;;;29.74;57.95
250;BME280;109;19.806;-70.704;2023-07-13T03:34:19;101497.13;;;29.72;57.76
250;BME280;109;19.806;-70.704;2023-07-13T03:36:54;101499.66;;;29.61;58.19
250;BME280;109;19.806;-70.704;2023-07-13T03:39:21;101494.53;;;29.71;58.16
250;BME280;109;19.806;-70.704;2023-07-13T03:41:57;101493.94;;;29.65;57.85
250;BME280;109;19.806;-70.704;2023-07-13T03:44:43;101491.84;;;29.71;58.12
250;BME280;109;19.806;-70.704;2023-07-13T03:47:24;101487.22;;;29.58;57.85
250;BME280;109;19.806;-70.704;2023-07-13T03:49:51;101479.13;;;29.73;57.75
250;BME280;109;19.806;-70.704;2023-07-13T03:52:23;101483.66;;;29.58;58.01
250;BME280;109;19.806;-70.704;2023-07-13T03:54:50;101477.19;;;29.60;58.10
250;BME280;109;19.806;-70.704;2023-07-13T03:57:24;101466.41;;;29.75;57.60
250;BME280;109;19.806;-70.704;2023-07-13T03:59:51;101460.78;;;29.78;57.79
250;BME280;109;19.806;-70.704;2023-07-13T04:02:32;101463.88;;;29.72;57.55
250;BME280;109;19.806;-70.704;2023-07-13T04:05:05;101462.22;;;29.83;57.78
250;BME280;109;19.806;-70.704;2023-07-13T04:07:32;101455.00;;;29.84;57.66
250;BME280;109;19.806;-70.704;2023-07-13T04:10:06;101451.84;;;29.77;57.39
250;BME280;109;19.806;-70.704;2023-07-13T04:12:33;101447.91;;;29.69;57.59
250;BME280;109;19.806;-70.704;2023-07-13T04:15:07;101442.88;;;29.77;57.63
250;BME280;109;19.806;-70.704;2023-07-13T04:17:33;101437.59;;;29.75;57.65
250;BME280;109;19.806;-70.704;2023-07-13T04:20:06;101430.38;;;29.76;57.35
250;BME280;109;19.806;-70.704;2023-07-13T04:22:33;101430.94;;;29.66;57.56
250;BME280;109;19.806;-70.704;2023-07-13T04:25:06;101428.06;;;29.55;57.38
250;BME280;109;19.806;-70.704;2023-07-13T04:27:33;101428.06;;;29.55;57.63
250;BME280;109;19.806;-70.704;2023-07-13T04:30:07;101432.56;;;29.69;57.43
250;BME280;109;19.806;-70.704;2023-07-13T04:32:33;101429.00;;;29.69;57.44
250;BME280;109;19.806;-70.704;2023-07-13T04:35:06;101417.16;;;29.43;57.71
250;BME280;109;19.806;-70.704;2023-07-13T04:37:33;101417.28;;;29.55;57.71
250;BME280;109;19.806;-70.704;2023-07-13T04:40:08;101409.75;;;29.60;57.32
250;BME280;109;19.806;-70.704;2023-07-13T04:42:45;101404.75;;;29.54;57.53
250;BME280;109;19.806;-70.704;2023-07-13T04:45:32;101403.41;;;29.61;57.40
250;BME280;109;19.806;-70.704;2023-07-13T04:48:05;101406.28;;;29.58;57.90
250;BME280;109;19.806;-70.704;2023-07-13T04:50:32;101411.50;;;29.47;57.79
250;BME280;109;19.806;-70.704;2023-07-13T04:53:05;101401.69;;;29.60;57.65
250;BME280;109;19.806;-70.704;2023-07-13T04:55:32;101394.19;;;29.51;57.88
250;BME280;109;19.806;-70.704;2023-07-13T04:58:05;101385.94;;;29.39;57.64
250;BME280;109;19.806;-70.704;2023-07-13T05:00:32;101394.28;;;29.50;57.83
250;BME280;109;19.806;-70.704;2023-07-13T05:03:13;101400.72;;;29.47;57.79
250;BME280;109;19.806;-70.704;2023-07-13T05:06:07;101392.31;;;29.52;57.82
250;BME280;109;19.806;-70.704;2023-07-13T05:08:42;101397.22;;;29.45;57.62
250;BME280;109;19.806;-70.704;2023-07-13T05:11:09;101398.38;;;29.41;57.84
250;BME280;109;19.806;-70.704;2023-07-13T05:13:42;101398.09;;;29.31;57.60
250;BME280;109;19.806;-70.704;2023-07-13T05:16:09;101387.22;;;29.33;57.69
250;BME280;109;19.806;-70.704;2023-07-13T05:18:42;101377.22;;;29.35;57.75
250;BME280;109;19.806;-70.704;2023-07-13T05:21:10;101367.56;;;29.45;57.50
250;BME280;109;19.806;-70.704;2023-07-13T05:23:43;101374.00;;;29.43;57.93
250;BME280;109;19.806;-70.704;2023-07-13T05:26:10;101361.81;;;29.37;57.67
250;BME280;109;19.806;-70.704;2023-07-13T05:28:44;101359.97;;;29.38;58.05
250;BME280;109;19.806;-70.704;2023-07-13T05:31:11;101359.09;;;29.37;57.85
250;BME280;109;19.806;-70.704;2023-07-13T05:33:44;101345.13;;;29.30;57.82
250;BME280;109;19.806;-70.704;2023-07-13T05:36:11;101336.00;;;29.47;57.70
250;BME280;109;19.806;-70.704;2023-07-13T05:38:44;101327.41;;;29.41;57.50
250;BME280;109;19.806;-70.704;2023-07-13T05:41:11;101330.09;;;29.41;57.62
250;BME280;109;19.806;-70.704;2023-07-13T05:43:44;101324.59;;;29.42;57.08
250;BME280;109;19.806;-70.704;2023-07-13T05:46:32;101315.19;;;29.49;57.56
250;BME280;109;19.806;-70.704;2023-07-13T05:49:06;101310.16;;;29.57;57.01
250;BME280;109;19.806;-70.704;2023-07-13T05:51:33;101306.16;;;29.50;56.64
250;BME280;109;19.806;-70.704;2023-07-13T05:54:06;101297.28;;;29.48;56.70
250;BME280;109;19.806;-70.704;2023-07-13T05:56:33;101295.91;;;29.41;57.04
250;BME280;109;19.806;-70.704;2023-07-13T05:59:06;101292.25;;;29.42;57.06
250;BME280;109;19.806;-70.704;2023-07-13T06:01:33;101290.94;;;29.35;57.23
250;BME280;109;19.806;-70.704;2023-07-13T06:04:06;101285.13;;;29.41;57.08
250;BME280;109;19.806;-70.704;2023-07-13T06:06:33;101281.25;;;29.45;57.12
250;BME280;109;19.806;-70.704;2023-07-13T06:09:06;101275.81;;;29.33;57.37
250;BME280;109;19.806;-70.704;2023-07-13T06:11:33;101266.75;;;29.34;57.56
250;BME280;109;19.806;-70.704;2023-07-13T06:14:07;101259.66;;;29.18;57.72
250;BME280;109;19.806;-70.704;2023-07-13T06:16:34;101271.16;;;29.08;58.01
250;BME280;109;19.806;-70.704;2023-07-13T06:19:07;101272.38;;;29.02;58.25
250;BME280;109;19.806;-70.704;2023-07-13T06:21:34;101275.66;;;29.07;58.57
250;BME280;109;19.806;-70.704;2023-07-13T06:24:07;101271.25;;;29.06;58.36
250;BME280;109;19.806;-70.704;2023-07-13T06:26:34;101263.41;;;28.87;58.79
250;BME280;109;19.806;-70.704;2023-07-13T06:29:07;101259.56;;;28.91;58.75
250;BME280;109;19.806;-70.704;2023-07-13T06:31:34;101259.13;;;28.99;58.76
250;BME280;109;19.806;-70.704;2023-07-13T06:34:07;101262.94;;;28.95;58.93
250;BME280;109;19.806;-70.704;2023-07-13T06:36:34;101271.75;;;28.99;59.10
250;BME280;109;19.806;-70.704;2023-07-13T06:39:08;101268.34;;;28.95;59.49
250;BME280;109;19.806;-70.704;2023-07-13T06:41:42;101264.63;;;28.98;59.39
250;BME280;109;19.806;-70.704;2023-07-13T06:44:17;101268.72;;;28.89;59.43
250;BME280;109;19.806;-70.704;2023-07-13T06:46:57;101277.56;;;28.77;59.34
250;BME280;109;19.806;-70.704;2023-07-13T06:49:24;101280.66;;;28.71;58.94
250;BME280;109;19.806;-70.704;2023-07-13T06:51:56;101284.22;;;28.71;59.05
250;BME280;109;19.806;-70.704;2023-07-13T06:54:23;101284.00;;;28.74;59.16
250;BME280;109;19.806;-70.704;2023-07-13T06:56:56;101281.53;;;28.71;59.23
250;BME280;109;19.806;-70.704;2023-07-13T06:59:23;101289.97;;;28.65;59.27
250;BME280;109;19.806;-70.704;2023-07-13T07:01:56;101290.84;;;28.66;59.13
250;BME280;109;19.806;-70.704;2023-07-13T07:04:23;101293.09;;;28.73;59.12
250;BME280;109;19.806;-70.704;2023-07-13T07:06:56;101292.97;;;28.60;59.02
250;BME280;109;19.806;-70.704;2023-07-13T07:09:23;101288.94;;;28.68;59.04
250;BME280;109;19.806;-70.704;2023-07-13T07:11:57;101287.19;;;28.67;59.05
250;BME280;109;19.806;-70.704;2023-07-13T07:14:23;101277.81;;;28.44;59.23
250;BME280;109;19.806;-70.704;2023-07-13T07:16:56;101281.72;;;28.54;59.34
250;BME280;109;19.806;-70.704;2023-07-13T07:19:24;101267.19;;;28.71;59.07
250;BME280;109;19.806;-70.704;2023-07-13T07:21:57;101269.03;;;28.70;59.17
250;BME280;109;19.806;-70.704;2023-07-13T07:24:24;101271.53;;;28.73;59.03
250;BME280;109;19.806;-70.704;2023-07-13T07:26:57;101264.41;;;28.72;58.77
250;BME280;109;19.806;-70.704;2023-07-13T07:29:32;101252.28;;;28.65;58.98
250;BME280;109;19.806;-70.704;2023-07-13T07:32:06;101250.63;;;28.48;58.99
250;BME280;109;19.806;-70.704;2023-07-13T07:34:32;101239.00;;;28.48;59.02
250;BME280;109;19.806;-70.704;2023-07-13T07:37:05;101239.13;;;28.46;59.24
250;BME280;109;19.806;-70.704;2023-07-13T07:39:32;101237.34;;;28.45;59.10
250;BME280;109;19.806;-70.704;2023-07-13T07:42:06;101239.00;;;28.48;59.08
250;BME280;109;19.806;-70.704;2023-07-13T07:44:53;101234.38;;;28.50;58.93
250;BME280;109;19.806;-70.704;2023-07-13T07:47:26;101228.59;;;28.42;59.01
250;BME280;109;19.806;-70.704;2023-07-13T07:49:53;101221.13;;;28.47;59.13
250;BME280;109;19.806;-70.704;2023-07-13T07:52:26;101221.28;;;28.44;59.04
250;BME280;109;19.806;-70.704;2023-07-13T07:54:53;101237.63;;;28.41;59.31
250;BME280;109;19.806;-70.704;2023-07-13T07:57:25;101248.06;;;28.47;59.36
250;BME280;109;19.806;-70.704;2023-07-13T07:59:52;101248.38;;;28.41;59.02
250;BME280;109;19.806;-70.704;2023-07-13T08:02:32;101250.91;;;28.44;59.28
250;BME280;109;19.806;-70.704;2023-07-13T08:05:05;101258.00;;;28.31;59.20
250;BME280;109;19.806;-70.704;2023-07-13T08:07:32;101262.63;;;28.43;59.12
250;BME280;109;19.806;-70.704;2023-07-13T08:10:06;101247.53;;;28.40;59.13
250;BME280;109;19.806;-70.704;2023-07-13T08:12:37;101233.19;;;28.40;59.39
250;BME280;109;19.806;-70.704;2023-07-13T08:15:14;101239.34;;;28.42;59.35
250;BME280;109;19.806;-70.704;2023-07-13T08:17:50;101231.09;;;28.45;59.18
250;BME280;109;19.806;-70.704;2023-07-13T08:20:23;101222.16;;;28.44;58.84
250;BME280;109;19.806;-70.704;2023-07-13T08:23:10;101224.75;;;28.46;58.97
250;BME280;109;19.806;-70.704;2023-07-13T08:25:53;101220.69;;;28.39;58.91
250;BME280;109;19.806;-70.704;2023-07-13T08:28:27;101230.41;;;28.41;59.03
250;BME280;109;19.806;-70.704;2023-07-13T08:30:53;101238.84;;;28.35;59.00
250;BME280;109;19.806;-70.704;2023-07-13T08:33:26;101246.19;;;28.33;59.08
250;BME280;109;19.806;-70.704;2023-07-13T08:35:53;101243.97;;;28.40;59.03
250;BME280;109;19.806;-70.704;2023-07-13T08:38:26;101242.72;;;28.45;58.68
250;BME280;109;19.806;-70.704;2023-07-13T08:40:55;101252.78;;;28.28;58.93
250;BME280;109;19.806;-70.704;2023-07-13T08:43:30;101259.72;;;28.32;59.09
250;BME280;109;19.806;-70.704;2023-07-13T08:46:21;101265.56;;;28.24;59.14
250;BME280;109;19.806;-70.704;2023-07-13T08:48:59;101261.47;;;28.33;59.02
250;BME280;109;19.806;-70.704;2023-07-13T08:51:43;101255.69;;;28.39;58.89
250;BME280;109;19.806;-70.704;2023-07-13T08:54:40;101260.88;;;28.42;58.67
250;BME280;109;19.806;-70.704;2023-07-13T08:57:16;101275.50;;;28.38;58.76
250;BME280;109;19.806;-70.704;2023-07-13T08:59:43;101266.53;;;28.37;58.43
250;BME280;109;19.806;-70.704;2023-07-13T09:02:50;101270.50;;;28.32;58.27
250;BME280;109;19.806;-70.704;2023-07-13T09:14:34;101271.38;;;28.32;57.32
250;BME280;109;19.806;-70.704;2023-07-13T09:17:02;101280.97;;;28.36;57.31
250;BME280;109;19.806;-70.704;2023-07-13T09:19:37;101290.88;;;28.36;56.97
250;BME280;109;19.806;-70.704;2023-07-13T09:22:05;101289.69;;;28.25;57.16
250;BME280;109;19.806;-70.704;2023-07-13T09:25:05;101289.13;;;28.35;56.57
250;BME280;109;19.806;-70.704;2023-07-13T09:27:46;101290.13;;;28.34;56.75
250;BME280;109;19.806;-70.704;2023-07-13T09:31:14;101279.13;;;28.37;56.67
250;BME280;109;19.806;-70.704;2023-07-13T09:33:27;101271.53;;;28.29;56.57
250;BME280;109;19.806;-70.704;2023-07-13T09:35:56;101263.47;;;28.29;56.45
250;BME280;109;19.806;-70.704;2023-07-13T09:38:33;101256.56;;;28.39;56.20
250;BME280;109;19.806;-70.704;2023-07-13T09:41:19;101253.31;;;28.48;55.87
250;BME280;109;19.806;-70.704;2023-07-13T09:44:12;101262.22;;;28.35;55.51
250;BME280;109;19.806;-70.704;2023-07-13T09:46:54;101270.84;;;28.25;55.32
250;BME280;109;19.806;-70.704;2023-07-13T09:49:25;101278.66;;;28.30;55.28
250;BME280;109;19.806;-70.704;2023-07-13T09:52:05;101279.03;;;28.24;55.21
250;BME280;109;19.806;-70.704;2023-07-13T09:54:49;101279.41;;;28.18;55.17
250;BME280;109;19.806;-70.704;2023-07-13T09:57:23;101284.75;;;28.04;55.28
250;BME280;109;19.806;-70.704;2023-07-13T09:59:53;101295.81;;;28.13;55.53
250;BME280;109;19.806;-70.704;2023-07-13T10:02:34;101296.34;;;28.20;55.35
250;BME280;109;19.806;-70.704;2023-07-13T10:05:13;101298.34;;;28.16;55.05
250;BME280;109;19.806;-70.704;2023-07-13T10:07:47;101283.97;;;28.02;55.57
250;BME280;109;19.806;-70.704;2023-07-13T10:10:17;101279.84;;;28.10;55.55
250;BME280;109;19.806;-70.704;2023-07-13T10:12:51;101283.50;;;28.09;55.65
250;BME280;109;19.806;-70.704;2023-07-13T10:15:22;101281.59;;;28.11;55.59
250;BME280;109;19.806;-70.704;2023-07-13T10:17:56;101294.94;;;28.13;55.30
250;BME280;109;19.806;-70.704;2023-07-13T10:20:24;101294.50;;;28.20;55.55
250;BME280;109;19.806;-70.704;2023-07-13T10:23:01;101299.69;;;28.23;55.43
250;BME280;109;19.806;-70.704;2023-07-13T10:25:34;101293.16;;;28.28;55.28
250;BME280;109;19.806;-70.704;2023-07-13T10:28:37;101290.47;;;28.28;55.33
250;BME280;109;19.806;-70.704;2023-07-13T10:31:13;101292.41;;;28.40;55.09
250;BME280;109;19.806;-70.704;2023-07-13T10:33:48;101299.63;;;28.39;54.93
250;BME280;109;19.806;-70.704;2023-07-13T10:39:05;101305.53;;;28.46;55.02
250;BME280;109;19.806;-70.704;2023-07-13T10:42:02;101314.69;;;28.28;55.17
250;BME280;109;19.806;-70.704;2023-07-13T10:44:36;101313.88;;;28.41;55.22
250;BME280;109;19.806;-70.704;2023-07-13T10:47:08;101313.84;;;28.57;54.75
250;BME280;109;19.806;-70.704;2023-07-13T10:49:45;101320.38;;;28.67;54.94
250;BME280;109;19.806;-70.704;2023-07-13T10:52:47;101331.44;;;28.63;54.71
250;BME280;109;19.806;-70.704;2023-07-13T10:58:39;101334.91;;;28.79;55.16
250;BME280;109;19.806;-70.704;2023-07-13T11:01:15;101329.34;;;28.68;55.57
250;BME280;109;19.806;-70.704;2023-07-13T11:04:02;101337.78;;;28.76;55.26
250;BME280;109;19.806;-70.704;2023-07-13T11:06:41;101343.50;;;28.71;55.23
250;BME280;109;19.806;-70.704;2023-07-13T11:12:00;101359.97;;;28.51;55.76
250;BME280;109;19.806;-70.704;2023-07-13T11:14:36;101369.28;;;28.89;55.45
250;BME280;109;19.806;-70.704;2023-07-13T11:22:50;101370.69;;;29.11;55.32
250;BME280;109;19.806;-70.704;2023-07-13T11:25:30;101370.88;;;29.22;55.64
250;BME280;109;19.806;-70.704;2023-07-13T11:30:37;101377.41;;;29.60;54.86
250;BME280;109;19.806;-70.704;2023-07-13T11:33:15;101377.41;;;29.60;54.56
250;BME280;109;19.806;-70.704;2023-07-13T11:38:22;101375.69;;;29.86;54.06
250;BME280;109;19.806;-70.704;2023-07-13T11:40:52;101374.91;;;29.98;53.49
250;BME280;109;19.806;-70.704;2023-07-13T11:43:20;101372.47;;;29.94;53.10
250;BME280;109;19.806;-70.704;2023-07-13T11:45:50;101376.88;;;30.09;52.64
250;BME280;109;19.806;-70.704;2023-07-13T11:50:57;101391.78;;;29.88;52.81
250;BME280;109;19.806;-70.704;2023-07-13T11:53:28;101388.13;;;29.48;53.50
250;BME280;109;19.806;-70.704;2023-07-13T11:55:57;101382.94;;;29.72;53.47
250;BME280;109;19.806;-70.704;2023-07-13T11:58:25;101368.53;;;29.99;53.39
250;BME280;109;19.806;-70.704;2023-07-13T12:00:52;101372.69;;;30.45;52.71
250;BME280;109;19.806;-70.704;2023-07-13T12:03:22;101371.72;;;30.58;52.30
250;BME280;109;19.806;-70.704;2023-07-13T12:06:03;101376.72;;;30.52;52.45
250;BME280;109;19.806;-70.704;2023-07-13T12:08:38;101379.44;;;30.38;51.88
250;BME280;109;19.806;-70.704;2023-07-13T12:11:17;101382.03;;;30.26;52.61
250;BME280;109;19.806;-70.704;2023-07-13T12:13:46;101389.09;;;30.42;52.42
250;BME280;109;19.806;-70.704;2023-07-13T12:16:27;101383.84;;;30.65;52.42
250;BME280;109;19.806;-70.704;2023-07-13T12:18:56;101379.53;;;30.63;51.63
250;BME280;109;19.806;-70.704;2023-07-13T12:21:31;101381.59;;;30.32;51.77
250;BME280;109;19.806;-70.704;2023-07-13T12:23:59;101375.38;;;30.45;51.92
250;BME280;109;19.806;-70.704;2023-07-13T12:26:29;101375.56;;;30.81;50.73
250;BME280;109;19.806;-70.704;2023-07-13T12:28:58;101377.16;;;30.71;51.23
250;BME280;109;19.806;-70.704;2023-07-13T12:31:36;101384.91;;;30.50;51.66
250;BME280;109;19.806;-70.704;2023-07-13T12:34:10;101381.25;;;30.24;52.32
250;BME280;109;19.806;-70.704;2023-07-13T12:36:41;101389.56;;;30.21;52.01
250;BME280;109;19.806;-70.704;2023-07-13T12:41:41;101395.22;;;31.09;50.41
250;BME280;109;19.806;-70.704;2023-07-13T12:44:11;101409.09;;;31.42;50.18
250;BME280;109;19.806;-70.704;2023-07-13T12:46:39;101411.00;;;31.53;49.43
250;BME280;109;19.806;-70.704;2023-07-13T12:49:07;101421.88;;;31.76;48.88
250;BME280;109;19.806;-70.704;2023-07-13T12:51:34;101420.44;;;32.20;49.11
250;BME280;109;19.806;-70.704;2023-07-13T12:54:17;101419.94;;;32.39;48.50
250;BME280;109;19.806;-70.704;2023-07-13T12:56:45;101419.38;;;32.58;47.86
250;BME280;109;19.806;-70.704;2023-07-13T12:59:19;101420.97;;;32.84;47.60
250;BME280;109;19.806;-70.704;2023-07-13T13:01:48;101420.13;;;32.60;47.37
250;BME280;109;19.806;-70.704;2023-07-13T13:04:15;101420.56;;;32.42;47.58
250;BME280;109;19.806;-70.704;2023-07-13T13:06:43;101413.31;;;32.43;47.24
250;BME280;109;19.806;-70.704;2023-07-13T13:09:12;101423.88;;;32.35;47.48
250;BME280;109;19.806;-70.704;2023-07-13T13:11:42;101418.06;;;32.16;47.70
250;BME280;109;19.806;-70.704;2023-07-13T13:14:09;101422.28;;;31.96;48.38
250;BME280;109;19.806;-70.704;2023-07-13T13:19:35;101410.41;;;31.73;47.91
250;BME280;109;19.806;-70.704;2023-07-13T13:22:02;101405.13;;;32.08;47.59
250;BME280;109;19.806;-70.704;2023-07-13T13:24:28;101398.25;;;31.91;48.53
250;BME280;109;19.806;-70.704;2023-07-13T13:26:55;101396.63;;;32.13;47.49
250;BME280;109;19.806;-70.704;2023-07-13T13:29:26;101381.66;;;32.20;47.31
250;BME280;109;19.806;-70.704;2023-07-13T13:31:54;101382.41;;;32.45;46.92
250;BME280;109;19.806;-70.704;2023-07-13T13:34:22;101398.19;;;32.28;47.04
250;BME280;109;19.806;-70.704;2023-07-13T13:36:55;101405.56;;;32.02;47.29
250;BME280;109;19.806;-70.704;2023-07-13T13:39:31;101400.09;;;32.38;47.11
250;BME280;109;19.806;-70.704;2023-07-13T13:41:59;101407.16;;;32.76;46.48
250;BME280;109;19.806;-70.704;2023-07-13T13:48:21;101395.06;;;32.80;46.71
250;BME280;109;19.806;-70.704;2023-07-13T13:50:57;101390.94;;;32.98;46.46
250;BME280;109;19.806;-70.704;2023-07-13T13:53:24;101388.31;;;32.86;46.71
250;BME280;109;19.806;-70.704;2023-07-13T13:55:50;101386.31;;;32.41;46.83
250;BME280;109;19.806;-70.704;2023-07-13T13:58:19;101386.84;;;32.23;47.32
250;BME280;109;19.806;-70.704;2023-07-13T14:00:47;101391.22;;;32.71;46.06
250;BME280;109;19.806;-70.704;2023-07-13T14:03:18;101379.97;;;32.65;46.75
250;BME280;109;19.806;-70.704;2023-07-13T14:05:45;101380.94;;;32.88;47.04
250;BME280;109;19.806;-70.704;2023-07-13T14:08:15;101369.47;;;32.95;46.94
250;BME280;109;19.806;-70.704;2023-07-13T14:10:43;101367.50;;;32.75;46.88
250;BME280;109;19.806;-70.704;2023-07-13T14:13:26;101366.94;;;32.70;48.18
250;BME280;109;19.806;-70.704;2023-07-13T14:15:54;101386.50;;;33.08;47.51
250;BME280;109;19.806;-70.704;2023-07-13T14:18:20;101373.94;;;33.19;48.53
250;BME280;109;19.806;-70.704;2023-07-13T14:20:48;101381.81;;;32.88;49.37